»·PEaware :: SWA2177 KPHX-KSFO

SWA2177 :: KPHX-KSFO

FLIGHT INFORMATION

Flight Status: Arrived
Operator:
Southwest Airlines
More flights by this operator :: More flights under this callsign
Pilot: Daniel R. (17770)
Aircraft: BOEING 737-200
(B732)
More flights by this aircraft type
Origin: KPHX Phoenix Sky Harbor Intl
United States
Destination: KSFO San Francisco Intl
United States
More flights between these airports :: More routes between these airports
Route: +BXK4 PMD J6 AVE BSR BSR3
File this flight plan on PilotEdge
Remarks:
Altitude:
(Current/Filed)
30,000ft
Speed:
(Current/Filed)
445kts
Departed: 03-Oct-18 05:32 PM
Arrived: 03-Oct-18 07:17 PM
Distance/Time
Traveled:
565nm/1:45
Distance/Time
To Go:
Arrived

Flight Plot

Page will automatically refresh every two minutes.

Flight plan parsing failed; only flown route is shown


Map Options




Map Legend


Flown Route
Filed Route
Departure Airport
Arrival Airport
Navaid (VOR, NDB)
Fix

Horizontal Profiles

Position Reports

Time Latitude Longitude Heading Altitude Ground
Speed
03-Oct-18 16:53 33.434462 -111.994835 89 1126ft 0kts
03-Oct-18 16:54 33.434462 -111.994835 89 1126ft 0kts
03-Oct-18 16:55 33.434462 -111.994835 89 1126ft 0kts
03-Oct-18 16:56 33.434462 -111.994835 89 1126ft 0kts
03-Oct-18 16:57 33.434462 -111.994835 89 1126ft 0kts
03-Oct-18 16:58 33.434462 -111.994835 89 1126ft 0kts
03-Oct-18 16:59 33.434462 -111.994835 89 1126ft 0kts
03-Oct-18 17:00 33.434462 -111.994835 89 1126ft 0kts
03-Oct-18 17:01 33.434462 -111.994835 89 1126ft 0kts
03-Oct-18 17:02 33.434462 -111.994835 89 1126ft 0kts
03-Oct-18 17:03 33.434462 -111.994835 89 1126ft 0kts
03-Oct-18 17:04 33.434462 -111.994835 89 1126ft 0kts
03-Oct-18 17:05 33.434462 -111.994835 89 1126ft 0kts
03-Oct-18 17:06 33.434462 -111.994835 89 1126ft 0kts
03-Oct-18 17:07 33.434462 -111.994835 89 1126ft 0kts
03-Oct-18 17:08 33.434462 -111.994835 89 1126ft 0kts
03-Oct-18 17:09 33.434462 -111.994835 89 1126ft 0kts
03-Oct-18 17:10 33.434462 -111.994835 89 1126ft 0kts
03-Oct-18 17:11 33.434462 -111.994835 89 1126ft 0kts
03-Oct-18 17:12 33.434462 -111.994835 89 1126ft 0kts
03-Oct-18 17:13 33.434462 -111.994835 89 1126ft 0kts
03-Oct-18 17:14 33.434462 -111.994835 89 1126ft 0kts
03-Oct-18 17:15 33.434462 -111.994835 89 1126ft 0kts
03-Oct-18 17:16 33.434462 -111.994835 89 1126ft 0kts
03-Oct-18 17:17 33.434462 -111.994835 89 1126ft 0kts
03-Oct-18 17:18 33.434462 -111.994835 89 1126ft 0kts
03-Oct-18 17:19 33.434454 -111.995400 89 1126ft 0kts
03-Oct-18 17:20 33.434454 -111.995400 89 1126ft 0kts
03-Oct-18 17:21 33.434454 -111.995400 89 1126ft 0kts
03-Oct-18 17:22 33.434454 -111.995400 89 1126ft 0kts
03-Oct-18 17:23 33.434454 -111.995400 89 1126ft 0kts
03-Oct-18 17:24 33.434154 -111.995323 180 1126ft 6kts
03-Oct-18 17:25 33.433530 -111.995323 179 1125ft 0kts
03-Oct-18 17:26 33.433503 -111.995323 180 1124ft 1kts
03-Oct-18 17:27 33.432868 -111.997556 268 1124ft 13kts
03-Oct-18 17:28 33.432854 -112.003083 269 1126ft 22kts
03-Oct-18 17:29 33.432872 -112.011457 270 1127ft 31kts
03-Oct-18 17:30 33.432882 -112.021914 269 1118ft 28kts
03-Oct-18 17:31 33.432132 -112.026958 176 1114ft 0kts
03-Oct-18 17:32 33.432132 -112.026958 176 1114ft 0kts
03-Oct-18 17:33 33.432007 -112.026951 177 1114ft 4kts
03-Oct-18 17:34 33.431063 -112.021636 90 1118ft 82kts
03-Oct-18 17:35 33.431946 -111.971503 86 2685ft 165kts
03-Oct-18 17:36 33.437094 -111.918442 85 4943ft 176kts
03-Oct-18 17:37 33.430828 -111.857042 110 7054ft 206kts
03-Oct-18 17:38 33.376997 -111.840027 213 8837ft 255kts
03-Oct-18 17:39 33.366886 -111.926270 277 10783ft 295kts
03-Oct-18 17:40 33.377434 -112.006966 274 12647ft 302kts
03-Oct-18 17:41 33.390520 -112.132400 273 14052ft 344kts
03-Oct-18 17:42 33.399652 -112.227078 272 15595ft 349kts
03-Oct-18 17:43 33.412201 -112.362848 271 17498ft 356kts
03-Oct-18 17:44 33.423063 -112.481672 270 18930ft 362kts
03-Oct-18 17:45 33.433979 -112.581822 272 19998ft 368kts
03-Oct-18 17:46 33.451017 -112.721738 272 21347ft 373kts
03-Oct-18 17:47 33.464178 -112.824988 272 22221ft 377kts
03-Oct-18 17:48 33.480812 -112.949115 272 23200ft 381kts
03-Oct-18 17:49 33.501968 -113.074210 274 24084ft 385kts
03-Oct-18 17:50 33.525383 -113.200280 274 24831ft 389kts
03-Oct-18 17:51 33.549269 -113.327004 274 25509ft 392kts
03-Oct-18 17:52 33.573098 -113.454666 274 26120ft 394kts
03-Oct-18 17:53 33.597127 -113.583255 274 26648ft 397kts
03-Oct-18 17:54 33.620125 -113.708826 273 27155ft 398kts
03-Oct-18 17:55 33.643853 -113.838678 273 27591ft 400kts
03-Oct-18 17:56 33.667850 -113.969498 273 28006ft 402kts
03-Oct-18 17:57 33.691792 -114.100642 273 28384ft 403kts
03-Oct-18 17:58 33.715679 -114.232539 273 28723ft 404kts
03-Oct-18 17:59 33.739402 -114.364669 273 29011ft 405kts
03-Oct-18 18:00 33.762799 -114.496857 273 29266ft 406kts
03-Oct-18 18:01 33.777739 -114.629605 268 29524ft 401kts
03-Oct-18 18:02 33.787304 -114.756594 264 29895ft 395kts
03-Oct-18 18:03 33.793867 -114.889304 264 29919ft 400kts
03-Oct-18 18:04 33.800412 -115.023333 264 29938ft 402kts
03-Oct-18 18:05 33.807600 -115.156311 263 29889ft 396kts
03-Oct-18 18:06 33.813488 -115.287027 262 29858ft 389kts
03-Oct-18 18:07 33.820337 -115.416309 263 29842ft 385kts
03-Oct-18 18:08 33.817723 -115.541367 261 29821ft 377kts
03-Oct-18 18:09 33.834079 -115.661476 258 29869ft 369kts
03-Oct-18 18:10 33.844583 -115.786132 270 29852ft 385kts
03-Oct-18 18:11 33.885087 -115.909441 281 29845ft 399kts
03-Oct-18 18:12 33.929440 -116.032103 283 29846ft 401kts
03-Oct-18 18:13 33.992780 -116.146215 289 29909ft 409kts
03-Oct-18 18:14 34.042876 -116.265439 281 29934ft 396kts
03-Oct-18 18:15 34.085499 -116.387051 280 29910ft 394kts
03-Oct-18 18:16 34.126561 -116.505660 280 29892ft 393kts
03-Oct-18 18:17 34.167771 -116.627855 280 29885ft 396kts
03-Oct-18 18:18 34.206424 -116.748164 279 29920ft 400kts
03-Oct-18 18:19 34.247875 -116.873337 279 29958ft 404kts
03-Oct-18 18:20 34.289333 -116.999680 281 29961ft 407kts
03-Oct-18 18:21 34.331102 -117.127316 282 29969ft 410kts
03-Oct-18 18:22 34.374071 -117.255352 283 29980ft 413kts
03-Oct-18 18:23 34.417417 -117.383694 282 30021ft 413kts
03-Oct-18 18:24 34.459405 -117.512292 282 30014ft 415kts
03-Oct-18 18:25 34.501914 -117.642117 282 30002ft 414kts
03-Oct-18 18:26 34.541004 -117.767602 281 30000ft 413kts
03-Oct-18 18:27 34.581608 -117.897836 281 29999ft 412kts
03-Oct-18 18:28 34.621934 -118.026951 281 29996ft 411kts
03-Oct-18 18:29 34.681863 -118.146328 304 30006ft 436kts
03-Oct-18 18:30 34.760708 -118.253284 301 30001ft 432kts
03-Oct-18 18:31 34.838057 -118.364372 301 30006ft 432kts
03-Oct-18 18:32 34.914678 -118.475189 301 30035ft 430kts
03-Oct-18 18:33 34.989729 -118.588093 303 30054ft 434kts
03-Oct-18 18:34 35.056197 -118.700522 295 30059ft 431kts
03-Oct-18 18:35 35.114501 -118.819689 295 30005ft 435kts
03-Oct-18 18:36 35.175114 -118.947191 296 29941ft 438kts
03-Oct-18 18:37 35.235257 -119.076262 298 29958ft 439kts
03-Oct-18 18:38 35.295293 -119.205783 298 29965ft 441kts
03-Oct-18 18:39 35.355202 -119.336019 298 29967ft 440kts
03-Oct-18 18:40 35.414728 -119.465847 298 29930ft 434kts
03-Oct-18 18:41 35.473253 -119.594074 298 29932ft 430kts
03-Oct-18 18:42 35.530011 -119.716345 298 29937ft 427kts
03-Oct-18 18:43 35.588981 -119.842151 298 29948ft 424kts
03-Oct-18 18:44 35.645403 -119.967825 289 29970ft 419kts
03-Oct-18 18:45 35.688219 -120.103818 290 29661ft 434kts
03-Oct-18 18:46 35.732727 -120.241194 290 29845ft 434kts
03-Oct-18 18:47 35.777142 -120.377688 290 29796ft 429kts
03-Oct-18 18:48 35.823187 -120.511825 291 29384ft 426kts
03-Oct-18 18:49 35.867184 -120.646198 290 28781ft 423kts
03-Oct-18 18:50 35.909229 -120.779352 289 28236ft 419kts
03-Oct-18 18:51 35.951531 -120.912152 289 27691ft 416kts
03-Oct-18 18:52 35.993218 -121.043321 289 27374ft 403kts
03-Oct-18 18:53 36.032663 -121.169115 290 26998ft 385kts
03-Oct-18 18:54 36.068511 -121.291968 289 25749ft 377kts
03-Oct-18 18:55 36.102705 -121.406892 289 25354ft 373kts
03-Oct-18 18:56 36.139210 -121.525226 291 24929ft 372kts
03-Oct-18 18:57 36.177509 -121.643702 293 24524ft 371kts
03-Oct-18 18:58 36.258570 -121.720002 326 24142ft 378kts
03-Oct-18 18:59 36.346819 -121.788830 323 23962ft 372kts
03-Oct-18 19:00 36.431759 -121.859223 329 23809ft 372kts
03-Oct-18 19:01 36.530473 -121.903117 341 22771ft 380kts
03-Oct-18 19:02 36.632704 -121.933516 344 21433ft 378kts
03-Oct-18 19:03 36.730051 -121.959617 344 19250ft 342kts
03-Oct-18 19:04 36.821550 -121.983793 345 15889ft 336kts
03-Oct-18 19:05 36.912322 -122.007644 347 12629ft 320kts
03-Oct-18 19:06 36.996969 -122.029723 346 10038ft 302kts
03-Oct-18 19:07 37.075769 -122.050540 346 10003ft 292kts
03-Oct-18 19:08 37.151245 -122.070410 347 9992ft 305kts
03-Oct-18 19:09 37.230937 -122.091421 347 9979ft 300kts
03-Oct-18 19:10 37.306563 -122.111478 347 9642ft 262kts
03-Oct-18 19:11 37.370468 -122.103749 12 7920ft 254kts
03-Oct-18 19:12 37.437359 -122.086134 12 5885ft 243kts
03-Oct-18 19:13 37.496430 -122.107969 323 3961ft 217kts
03-Oct-18 19:14 37.530440 -122.166074 299 3432ft 206kts
03-Oct-18 19:15 37.555759 -122.225434 297 2379ft 177kts
03-Oct-18 19:16 37.574955 -122.271011 297 1539ft 130kts
03-Oct-18 19:17 37.593745 -122.315582 296 804ft 152kts
03-Oct-18 19:18 37.612258 -122.359555 294 28ft 130kts
03-Oct-18 19:19 37.618947 -122.378080 269 28ft 0kts
03-Oct-18 19:20 37.618947 -122.378080 269 28ft 0kts
03-Oct-18 19:21 37.616834 -122.379520 197 31ft 19kts
03-Oct-18 19:22 37.613356 -122.382009 259 32ft 4kts
03-Oct-18 19:23 37.613175 -122.383304 261 32ft 0kts
03-Oct-18 19:24 37.613175 -122.383304 262 32ft 0kts
03-Oct-18 19:25 37.613175 -122.383304 262 32ft 0kts
03-Oct-18 19:26 37.613175 -122.383304 262 32ft 0kts
03-Oct-18 19:27 37.613175 -122.383305 262 32ft 0kts
03-Oct-18 19:28 37.613175 -122.383305 262 32ft 0kts
03-Oct-18 19:29 37.613175 -122.383305 262 32ft 0kts
03-Oct-18 19:30 37.613175 -122.383305 262 32ft 0kts
03-Oct-18 19:31 37.613175 -122.383305 262 32ft 0kts

Navigation Log

Ident Type
Flight plan parsing failed, navigation log unavailable